sensor_id;sensor_type;location;lat;lon;timestamp;temperature;humidity
42365;DHT22;28498;54.400;18.566;2023-05-07T00:01:37;4.30;96.80
42365;DHT22;28498;54.400;18.566;2023-05-07T00:04:04;4.30;93.70
42365;DHT22;28498;54.400;18.566;2023-05-07T00:06:32;4.10;88.40
42365;DHT22;28498;54.400;18.566;2023-05-07T00:08:59;4.00;91.00
42365;DHT22;28498;54.400;18.566;2023-05-07T00:11:28;3.90;92.80
42365;DHT22;28498;54.400;18.566;2023-05-07T00:13:55;3.90;95.70
42365;DHT22;28498;54.400;18.566;2023-05-07T00:16:22;3.90;92.90
42365;DHT22;28498;54.400;18.566;2023-05-07T00:18:49;3.80;93.90
42365;DHT22;28498;54.400;18.566;2023-05-07T00:21:16;3.70;92.80
42365;DHT22;28498;54.400;18.566;2023-05-07T00:23:43;3.70;92.30
42365;DHT22;28498;54.400;18.566;2023-05-07T00:26:10;3.60;91.70
42365;DHT22;28498;54.400;18.566;2023-05-07T00:28:37;3.80;95.40
42365;DHT22;28498;54.400;18.566;2023-05-07T00:31:04;3.60;90.20
42365;DHT22;28498;54.400;18.566;2023-05-07T00:33:31;3.60;90.90
42365;DHT22;28498;54.400;18.566;2023-05-07T00:35:58;3.60;90.20
42365;DHT22;28498;54.400;18.566;2023-05-07T00:38:24;3.70;93.00
42365;DHT22;28498;54.400;18.566;2023-05-07T00:40:52;3.70;86.40
42365;DHT22;28498;54.400;18.566;2023-05-07T00:43:19;3.70;82.40
42365;DHT22;28498;54.400;18.566;2023-05-07T00:45:46;3.60;78.50
42365;DHT22;28498;54.400;18.566;2023-05-07T00:48:13;3.60;82.00
42365;DHT22;28498;54.400;18.566;2023-05-07T00:50:40;3.60;77.70
42365;DHT22;28498;54.400;18.566;2023-05-07T00:53:08;3.70;75.40
42365;DHT22;28498;54.400;18.566;2023-05-07T00:55:35;3.60;64.10
42365;DHT22;28498;54.400;18.566;2023-05-07T00:58:03;3.60;61.20
42365;DHT22;28498;54.400;18.566;2023-05-07T01:00:30;3.40;65.70
42365;DHT22;28498;54.400;18.566;2023-05-07T01:02:58;3.40;67.20
42365;DHT22;28498;54.400;18.566;2023-05-07T01:05:26;3.30;67.30
42365;DHT22;28498;54.400;18.566;2023-05-07T01:07:55;3.80;69.90
42365;DHT22;28498;54.400;18.566;2023-05-07T01:10:23;3.50;48.60
42365;DHT22;28498;54.400;18.566;2023-05-07T01:12:51;3.80;44.70
42365;DHT22;28498;54.400;18.566;2023-05-07T01:15:18;3.50;30.50
42365;DHT22;28498;54.400;18.566;2023-05-07T01:17:46;3.20;36.10
42365;DHT22;28498;54.400;18.566;2023-05-07T01:20:13;3.30;51.90
42365;DHT22;28498;54.400;18.566;2023-05-07T01:22:40;3.20;56.60
42365;DHT22;28498;54.400;18.566;2023-05-07T01:25:09;3.20;62.30
42365;DHT22;28498;54.400;18.566;2023-05-07T01:27:36;3.20;61.00
42365;DHT22;28498;54.400;18.566;2023-05-07T01:30:04;3.00;58.60
42365;DHT22;28498;54.400;18.566;2023-05-07T01:32:42;2.90;61.20
42365;DHT22;28498;54.400;18.566;2023-05-07T01:35:12;2.90;73.70
42365;DHT22;28498;54.400;18.566;2023-05-07T01:37:40;3.10;73.50
42365;DHT22;28498;54.400;18.566;2023-05-07T01:40:08;3.00;64.40
42365;DHT22;28498;54.400;18.566;2023-05-07T01:42:36;3.00;73.00
42365;DHT22;28498;54.400;18.566;2023-05-07T01:45:03;3.20;65.00
42365;DHT22;28498;54.400;18.566;2023-05-07T01:47:31;3.00;44.40
42365;DHT22;28498;54.400;18.566;2023-05-07T01:49:58;2.90;52.00
42365;DHT22;28498;54.400;18.566;2023-05-07T01:52:27;2.80;58.50
42365;DHT22;28498;54.400;18.566;2023-05-07T01:54:54;2.80;67.80
42365;DHT22;28498;54.400;18.566;2023-05-07T01:57:21;2.80;70.90
42365;DHT22;28498;54.400;18.566;2023-05-07T01:59:48;3.00;69.10
42365;DHT22;28498;54.400;18.566;2023-05-07T02:02:15;2.80;53.10
42365;DHT22;28498;54.400;18.566;2023-05-07T02:04:42;2.90;61.60
42365;DHT22;28498;54.400;18.566;2023-05-07T02:07:09;2.80;49.60
42365;DHT22;28498;54.400;18.566;2023-05-07T02:09:36;2.80;60.60
42365;DHT22;28498;54.400;18.566;2023-05-07T02:12:04;2.90;58.40
42365;DHT22;28498;54.400;18.566;2023-05-07T02:14:31;2.70;52.40
42365;DHT22;28498;54.400;18.566;2023-05-07T02:16:57;2.60;57.00
42365;DHT22;28498;54.400;18.566;2023-05-07T02:19:25;2.50;65.20
42365;DHT22;28498;54.400;18.566;2023-05-07T02:21:51;2.60;70.80
42365;DHT22;28498;54.400;18.566;2023-05-07T02:24:19;2.50;62.40
42365;DHT22;28498;54.400;18.566;2023-05-07T02:26:46;2.30;62.30
42365;DHT22;28498;54.400;18.566;2023-05-07T02:29:13;2.30;71.80
42365;DHT22;28498;54.400;18.566;2023-05-07T02:31:40;2.20;72.40
42365;DHT22;28498;54.400;18.566;2023-05-07T02:34:07;2.00;73.70
42365;DHT22;28498;54.400;18.566;2023-05-07T02:36:34;1.90;77.40
42365;DHT22;28498;54.400;18.566;2023-05-07T02:39:01;1.90;82.00
42365;DHT22;28498;54.400;18.566;2023-05-07T02:41:29;1.70;84.40
42365;DHT22;28498;54.400;18.566;2023-05-07T02:43:56;1.70;90.10
42365;DHT22;28498;54.400;18.566;2023-05-07T02:46:23;1.60;90.40
42365;DHT22;28498;54.400;18.566;2023-05-07T02:48:50;1.60;90.50
42365;DHT22;28498;54.400;18.566;2023-05-07T02:51:21;1.50;90.60
42365;DHT22;28498;54.400;18.566;2023-05-07T02:53:51;1.40;91.50
42365;DHT22;28498;54.400;18.566;2023-05-07T02:56:18;1.60;97.30
42365;DHT22;28498;54.400;18.566;2023-05-07T02:58:45;1.50;95.80
42365;DHT22;28498;54.400;18.566;2023-05-07T03:01:12;1.70;97.30
42365;DHT22;28498;54.400;18.566;2023-05-07T03:03:40;1.60;99.60
42365;DHT22;28498;54.400;18.566;2023-05-07T03:06:07;1.50;98.60
42365;DHT22;28498;54.400;18.566;2023-05-07T03:08:34;1.50;98.50
42365;DHT22;28498;54.400;18.566;2023-05-07T03:11:01;1.50;98.80
42365;DHT22;28498;54.400;18.566;2023-05-07T03:13:28;1.40;98.90
42365;DHT22;28498;54.400;18.566;2023-05-07T03:15:55;1.60;99.90
42365;DHT22;28498;54.400;18.566;2023-05-07T03:18:22;1.80;99.90
42365;DHT22;28498;54.400;18.566;2023-05-07T03:20:49;1.80;99.90
42365;DHT22;28498;54.400;18.566;2023-05-07T03:23:16;1.80;99.90
42365;DHT22;28498;54.400;18.566;2023-05-07T03:25:43;1.80;99.90
42365;DHT22;28498;54.400;18.566;2023-05-07T03:28:10;1.80;99.90
42365;DHT22;28498;54.400;18.566;2023-05-07T03:30:37;1.90;99.90
42365;DHT22;28498;54.400;18.566;2023-05-07T03:33:04;2.00;99.90
42365;DHT22;28498;54.400;18.566;2023-05-07T03:35:31;2.10;99.90
42365;DHT22;28498;54.400;18.566;2023-05-07T03:37:58;2.20;99.90
42365;DHT22;28498;54.400;18.566;2023-05-07T03:40:25;2.30;99.90
42365;DHT22;28498;54.400;18.566;2023-05-07T03:42:52;2.40;99.90
42365;DHT22;28498;54.400;18.566;2023-05-07T03:45:19;2.70;99.90
42365;DHT22;28498;54.400;18.566;2023-05-07T03:47:46;3.10;97.90
42365;DHT22;28498;54.400;18.566;2023-05-07T03:50:13;3.50;81.60
42365;DHT22;28498;54.400;18.566;2023-05-07T03:52:40;3.80;59.90
42365;DHT22;28498;54.400;18.566;2023-05-07T03:55:08;4.40;65.60
42365;DHT22;28498;54.400;18.566;2023-05-07T03:57:35;4.90;21.10
42365;DHT22;28498;54.400;18.566;2023-05-07T04:00:02;5.40;1.00
42365;DHT22;28498;54.400;18.566;2023-05-07T04:02:30;5.50;1.00
42365;DHT22;28498;54.400;18.566;2023-05-07T04:04:57;5.90;1.00
42365;DHT22;28498;54.400;18.566;2023-05-07T04:07:24;6.00;1.00
42365;DHT22;28498;54.400;18.566;2023-05-07T04:09:51;6.40;99.90
42365;DHT22;28498;54.400;18.566;2023-05-07T04:12:18;6.20;88.10
42365;DHT22;28498;54.400;18.566;2023-05-07T04:14:45;6.60;99.90
42365;DHT22;28498;54.400;18.566;2023-05-07T04:17:12;6.40;99.90
42365;DHT22;28498;54.400;18.566;2023-05-07T04:19:39;6.00;99.90
42365;DHT22;28498;54.400;18.566;2023-05-07T04:22:06;5.80;1.00
42365;DHT22;28498;54.400;18.566;2023-05-07T04:24:32;5.60;1.00
42365;DHT22;28498;54.400;18.566;2023-05-07T04:26:59;5.60;99.90
42365;DHT22;28498;54.400;18.566;2023-05-07T04:29:26;5.80;99.90
42365;DHT22;28498;54.400;18.566;2023-05-07T04:31:53;6.30;89.00
42365;DHT22;28498;54.400;18.566;2023-05-07T04:34:22;6.80;99.90
42365;DHT22;28498;54.400;18.566;2023-05-07T04:36:49;6.80;99.90
42365;DHT22;28498;54.400;18.566;2023-05-07T04:39:16;6.70;99.90
42365;DHT22;28498;54.400;18.566;2023-05-07T04:41:43;6.50;99.90
42365;DHT22;28498;54.400;18.566;2023-05-07T04:44:10;6.40;99.90
42365;DHT22;28498;54.400;18.566;2023-05-07T04:46:37;6.20;99.90
42365;DHT22;28498;54.400;18.566;2023-05-07T04:49:04;6.10;99.90
42365;DHT22;28498;54.400;18.566;2023-05-07T04:51:32;6.30;99.90
42365;DHT22;28498;54.400;18.566;2023-05-07T04:53:59;6.40;99.90
42365;DHT22;28498;54.400;18.566;2023-05-07T04:56:28;6.60;99.90
42365;DHT22;28498;54.400;18.566;2023-05-07T04:58:56;6.90;22.80
42365;DHT22;28498;54.400;18.566;2023-05-07T05:01:23;7.60;99.90
42365;DHT22;28498;54.400;18.566;2023-05-07T05:03:50;8.30;99.90
42365;DHT22;28498;54.400;18.566;2023-05-07T05:06:17;8.70;99.90
42365;DHT22;28498;54.400;18.566;2023-05-07T05:08:44;8.80;99.90
42365;DHT22;28498;54.400;18.566;2023-05-07T05:11:11;8.60;99.90
42365;DHT22;28498;54.400;18.566;2023-05-07T05:13:38;8.60;99.90
42365;DHT22;28498;54.400;18.566;2023-05-07T05:16:05;8.40;99.90
42365;DHT22;28498;54.400;18.566;2023-05-07T05:18:32;8.40;99.90
42365;DHT22;28498;54.400;18.566;2023-05-07T05:20:59;8.30;99.90
42365;DHT22;28498;54.400;18.566;2023-05-07T05:23:27;8.40;99.90
42365;DHT22;28498;54.400;18.566;2023-05-07T05:25:57;8.50;99.90
42365;DHT22;28498;54.400;18.566;2023-05-07T05:28:24;8.60;99.90
42365;DHT22;28498;54.400;18.566;2023-05-07T05:30:51;8.60;99.90
42365;DHT22;28498;54.400;18.566;2023-05-07T05:33:18;8.60;99.90
42365;DHT22;28498;54.400;18.566;2023-05-07T05:35:45;8.70;99.90
42365;DHT22;28498;54.400;18.566;2023-05-07T05:38:13;8.80;99.90
42365;DHT22;28498;54.400;18.566;2023-05-07T05:40:40;9.00;99.90
42365;DHT22;28498;54.400;18.566;2023-05-07T05:43:07;9.20;99.90
42365;DHT22;28498;54.400;18.566;2023-05-07T05:45:34;9.30;99.90
42365;DHT22;28498;54.400;18.566;2023-05-07T05:48:01;9.40;99.90
42365;DHT22;28498;54.400;18.566;2023-05-07T05:50:28;9.60;99.90
42365;DHT22;28498;54.400;18.566;2023-05-07T05:52:55;9.60;99.90
42365;DHT22;28498;54.400;18.566;2023-05-07T05:55:22;9.60;99.90
42365;DHT22;28498;54.400;18.566;2023-05-07T05:57:49;9.70;99.90
42365;DHT22;28498;54.400;18.566;2023-05-07T06:00:17;9.80;99.90
42365;DHT22;28498;54.400;18.566;2023-05-07T06:02:44;9.80;99.90
42365;DHT22;28498;54.400;18.566;2023-05-07T06:05:11;9.80;99.90
42365;DHT22;28498;54.400;18.566;2023-05-07T06:07:38;10.00;99.90
42365;DHT22;28498;54.400;18.566;2023-05-07T06:10:06;10.10;99.90
42365;DHT22;28498;54.400;18.566;2023-05-07T06:12:33;10.40;99.90
42365;DHT22;28498;54.400;18.566;2023-05-07T06:15:00;10.40;99.90
42365;DHT22;28498;54.400;18.566;2023-05-07T06:17:28;10.40;99.90
42365;DHT22;28498;54.400;18.566;2023-05-07T06:19:55;10.40;99.90
42365;DHT22;28498;54.400;18.566;2023-05-07T06:22:22;10.60;99.90
42365;DHT22;28498;54.400;18.566;2023-05-07T06:24:48;10.60;99.90
42365;DHT22;28498;54.400;18.566;2023-05-07T06:27:15;10.60;99.90
42365;DHT22;28498;54.400;18.566;2023-05-07T06:29:42;10.50;99.90
42365;DHT22;28498;54.400;18.566;2023-05-07T06:32:11;10.50;99.90
42365;DHT22;28498;54.400;18.566;2023-05-07T06:34:39;10.10;99.90
42365;DHT22;28498;54.400;18.566;2023-05-07T06:37:07;10.30;99.90
42365;DHT22;28498;54.400;18.566;2023-05-07T06:39:34;10.40;99.90
42365;DHT22;28498;54.400;18.566;2023-05-07T06:42:01;10.40;99.90
42365;DHT22;28498;54.400;18.566;2023-05-07T06:44:29;10.50;99.90
42365;DHT22;28498;54.400;18.566;2023-05-07T06:46:56;10.40;99.90
42365;DHT22;28498;54.400;18.566;2023-05-07T06:49:23;10.50;99.90
42365;DHT22;28498;54.400;18.566;2023-05-07T06:51:50;10.60;99.90
42365;DHT22;28498;54.400;18.566;2023-05-07T06:54:17;10.50;99.90
42365;DHT22;28498;54.400;18.566;2023-05-07T06:56:44;10.50;99.90
42365;DHT22;28498;54.400;18.566;2023-05-07T06:59:11;10.40;99.90
42365;DHT22;28498;54.400;18.566;2023-05-07T07:01:37;10.40;99.90
42365;DHT22;28498;54.400;18.566;2023-05-07T07:04:04;10.10;99.90
42365;DHT22;28498;54.400;18.566;2023-05-07T07:06:31;10.10;99.90
42365;DHT22;28498;54.400;18.566;2023-05-07T07:08:59;10.00;99.90
42365;DHT22;28498;54.400;18.566;2023-05-07T07:11:27;9.80;99.90
42365;DHT22;28498;54.400;18.566;2023-05-07T07:13:53;10.00;99.90
42365;DHT22;28498;54.400;18.566;2023-05-07T07:16:21;10.00;99.90
42365;DHT22;28498;54.400;18.566;2023-05-07T07:18:48;10.10;99.90
42365;DHT22;28498;54.400;18.566;2023-05-07T07:21:15;10.30;99.90
42365;DHT22;28498;54.400;18.566;2023-05-07T07:23:42;10.40;99.90
42365;DHT22;28498;54.400;18.566;2023-05-07T07:26:10;10.40;99.90
42365;DHT22;28498;54.400;18.566;2023-05-07T07:28:42;10.60;99.90
42365;DHT22;28498;54.400;18.566;2023-05-07T07:31:11;10.70;99.90
42365;DHT22;28498;54.400;18.566;2023-05-07T07:33:38;10.80;99.90
42365;DHT22;28498;54.400;18.566;2023-05-07T07:36:06;10.70;99.90
42365;DHT22;28498;54.400;18.566;2023-05-07T07:38:34;10.80;99.90
42365;DHT22;28498;54.400;18.566;2023-05-07T07:41:01;10.60;99.90
42365;DHT22;28498;54.400;18.566;2023-05-07T07:47:10;10.60;99.90
42365;DHT22;28498;54.400;18.566;2023-05-07T07:49:37;10.80;99.90
42365;DHT22;28498;54.400;18.566;2023-05-07T07:52:03;10.70;99.90
42365;DHT22;28498;54.400;18.566;2023-05-07T07:54:30;10.70;99.90
42365;DHT22;28498;54.400;18.566;2023-05-07T07:56:58;10.80;99.90
42365;DHT22;28498;54.400;18.566;2023-05-07T07:59:25;10.90;99.90
42365;DHT22;28498;54.400;18.566;2023-05-07T08:01:52;11.00;99.90
42365;DHT22;28498;54.400;18.566;2023-05-07T08:04:22;10.90;99.90
42365;DHT22;28498;54.400;18.566;2023-05-07T08:06:49;11.10;99.90
42365;DHT22;28498;54.400;18.566;2023-05-07T08:09:16;10.90;99.90
42365;DHT22;28498;54.400;18.566;2023-05-07T08:11:43;10.90;99.90
42365;DHT22;28498;54.400;18.566;2023-05-07T08:14:11;11.00;99.90
42365;DHT22;28498;54.400;18.566;2023-05-07T08:16:38;10.90;99.90
42365;DHT22;28498;54.400;18.566;2023-05-07T08:19:05;11.00;99.90
42365;DHT22;28498;54.400;18.566;2023-05-07T08:21:32;11.10;99.90
42365;DHT22;28498;54.400;18.566;2023-05-07T08:24:00;11.20;99.90
42365;DHT22;28498;54.400;18.566;2023-05-07T08:26:27;10.90;99.90
42365;DHT22;28498;54.400;18.566;2023-05-07T08:32:41;11.00;99.90
42365;DHT22;28498;54.400;18.566;2023-05-07T08:35:08;10.90;99.90
42365;DHT22;28498;54.400;18.566;2023-05-07T08:37:36;11.00;99.90
42365;DHT22;28498;54.400;18.566;2023-05-07T08:40:03;11.00;99.90
42365;DHT22;28498;54.400;18.566;2023-05-07T08:42:35;10.90;99.90
42365;DHT22;28498;54.400;18.566;2023-05-07T08:45:05;11.00;99.90
42365;DHT22;28498;54.400;18.566;2023-05-07T08:47:42;11.20;99.90
42365;DHT22;28498;54.400;18.566;2023-05-07T08:50:11;11.20;99.90
42365;DHT22;28498;54.400;18.566;2023-05-07T08:52:42;11.10;99.90
42365;DHT22;28498;54.400;18.566;2023-05-07T08:55:09;11.10;99.90
42365;DHT22;28498;54.400;18.566;2023-05-07T09:01:24;10.90;99.90
42365;DHT22;28498;54.400;18.566;2023-05-07T09:03:53;10.90;99.90
42365;DHT22;28498;54.400;18.566;2023-05-07T09:06:20;10.90;99.90
42365;DHT22;28498;54.400;18.566;2023-05-07T09:08:54;10.90;99.90
42365;DHT22;28498;54.400;18.566;2023-05-07T09:11:24;10.70;99.90
42365;DHT22;28498;54.400;18.566;2023-05-07T09:13:55;10.80;99.90
42365;DHT22;28498;54.400;18.566;2023-05-07T09:16:23;10.90;99.90
42365;DHT22;28498;54.400;18.566;2023-05-07T09:18:54;10.90;99.90
42365;DHT22;28498;54.400;18.566;2023-05-07T09:21:22;11.00;99.90
42365;DHT22;28498;54.400;18.566;2023-05-07T09:23:54;11.10;99.90
42365;DHT22;28498;54.400;18.566;2023-05-07T09:26:22;11.10;99.90
42365;DHT22;28498;54.400;18.566;2023-05-07T09:28:49;11.00;99.90
42365;DHT22;28498;54.400;18.566;2023-05-07T09:31:17;11.00;99.90
42365;DHT22;28498;54.400;18.566;2023-05-07T09:33:47;10.90;99.90
42365;DHT22;28498;54.400;18.566;2023-05-07T09:36:14;11.00;99.90
42365;DHT22;28498;54.400;18.566;2023-05-07T09:38:41;10.90;99.90
42365;DHT22;28498;54.400;18.566;2023-05-07T09:41:11;11.10;99.90
42365;DHT22;28498;54.400;18.566;2023-05-07T09:43:39;10.90;99.60
42365;DHT22;28498;54.400;18.566;2023-05-07T09:46:09;11.00;99.90
42365;DHT22;28498;54.400;18.566;2023-05-07T09:48:39;11.00;99.90
42365;DHT22;28498;54.400;18.566;2023-05-07T09:51:31;11.20;99.90
42365;DHT22;28498;54.400;18.566;2023-05-07T09:53:59;11.10;99.90
42365;DHT22;28498;54.400;18.566;2023-05-07T09:56:29;11.10;99.30
42365;DHT22;28498;54.400;18.566;2023-05-07T09:59:00;11.20;99.80
42365;DHT22;28498;54.400;18.566;2023-05-07T10:01:27;11.40;99.30
42365;DHT22;28498;54.400;18.566;2023-05-07T10:03:55;11.50;96.20
42365;DHT22;28498;54.400;18.566;2023-05-07T10:06:24;11.50;95.60
42365;DHT22;28498;54.400;18.566;2023-05-07T10:08:52;11.40;94.30
42365;DHT22;28498;54.400;18.566;2023-05-07T10:11:22;11.40;95.90
42365;DHT22;28498;54.400;18.566;2023-05-07T10:13:49;11.40;94.90
42365;DHT22;28498;54.400;18.566;2023-05-07T10:16:17;11.50;95.20
42365;DHT22;28498;54.400;18.566;2023-05-07T10:18:46;11.70;95.30
42365;DHT22;28498;54.400;18.566;2023-05-07T10:21:17;11.70;96.30
42365;DHT22;28498;54.400;18.566;2023-05-07T10:26:29;11.70;97.50
42365;DHT22;28498;54.400;18.566;2023-05-07T10:29:05;12.00;97.60
42365;DHT22;28498;54.400;18.566;2023-05-07T10:34:28;12.00;98.50
42365;DHT22;28498;54.400;18.566;2023-05-07T10:36:56;11.80;97.60
42365;DHT22;28498;54.400;18.566;2023-05-07T10:39:23;11.80;99.90
42365;DHT22;28498;54.400;18.566;2023-05-07T10:41:50;11.90;99.90
42365;DHT22;28498;54.400;18.566;2023-05-07T10:44:29;11.80;99.90
42365;DHT22;28498;54.400;18.566;2023-05-07T10:47:12;11.90;99.90
42365;DHT22;28498;54.400;18.566;2023-05-07T10:52:23;12.10;99.90
42365;DHT22;28498;54.400;18.566;2023-05-07T10:57:44;12.10;99.90
42365;DHT22;28498;54.400;18.566;2023-05-07T11:03:07;12.20;99.90
42365;DHT22;28498;54.400;18.566;2023-05-07T11:05:35;12.00;99.90
42365;DHT22;28498;54.400;18.566;2023-05-07T11:08:04;11.80;99.90
42365;DHT22;28498;54.400;18.566;2023-05-07T11:10:51;11.70;99.90
42365;DHT22;28498;54.400;18.566;2023-05-07T11:16:22;11.90;99.90
42365;DHT22;28498;54.400;18.566;2023-05-07T11:18:51;11.80;99.90
42365;DHT22;28498;54.400;18.566;2023-05-07T11:21:40;12.00;99.90
42365;DHT22;28498;54.400;18.566;2023-05-07T11:24:09;12.20;99.90
42365;DHT22;28498;54.400;18.566;2023-05-07T11:26:49;12.00;99.90
42365;DHT22;28498;54.400;18.566;2023-05-07T11:29:18;11.90;99.90
42365;DHT22;28498;54.400;18.566;2023-05-07T11:31:52;11.90;99.90
42365;DHT22;28498;54.400;18.566;2023-05-07T11:34:24;12.00;99.90
42365;DHT22;28498;54.400;18.566;2023-05-07T11:36:52;12.00;99.90
42365;DHT22;28498;54.400;18.566;2023-05-07T11:39:32;12.20;99.90
42365;DHT22;28498;54.400;18.566;2023-05-07T11:42:00;12.20;99.90
42365;DHT22;28498;54.400;18.566;2023-05-07T11:44:41;12.20;99.90
42365;DHT22;28498;54.400;18.566;2023-05-07T11:47:08;12.20;99.90
42365;DHT22;28498;54.400;18.566;2023-05-07T11:49:36;12.10;99.90
42365;DHT22;28498;54.400;18.566;2023-05-07T11:52:03;12.00;99.90
42365;DHT22;28498;54.400;18.566;2023-05-07T11:54:36;12.10;98.40
42365;DHT22;28498;54.400;18.566;2023-05-07T11:57:03;12.00;98.30
42365;DHT22;28498;54.400;18.566;2023-05-07T11:59:37;12.00;95.30
42365;DHT22;28498;54.400;18.566;2023-05-07T12:02:05;12.20;98.30
42365;DHT22;28498;54.400;18.566;2023-05-07T12:04:32;12.40;99.30
42365;DHT22;28498;54.400;18.566;2023-05-07T12:06:59;12.40;96.40
42365;DHT22;28498;54.400;18.566;2023-05-07T12:09:26;12.30;96.50
42365;DHT22;28498;54.400;18.566;2023-05-07T12:11:53;12.30;95.50
42365;DHT22;28498;54.400;18.566;2023-05-07T12:14:27;12.50;94.50
42365;DHT22;28498;54.400;18.566;2023-05-07T12:16:55;12.40;95.80
42365;DHT22;28498;54.400;18.566;2023-05-07T12:19:23;12.10;95.50
42365;DHT22;28498;54.400;18.566;2023-05-07T12:21:50;12.30;98.20
42365;DHT22;28498;54.400;18.566;2023-05-07T12:24:17;12.40;96.50
42365;DHT22;28498;54.400;18.566;2023-05-07T12:26:48;12.40;96.00
42365;DHT22;28498;54.400;18.566;2023-05-07T12:29:16;12.40;97.10
42365;DHT22;28498;54.400;18.566;2023-05-07T12:31:43;12.20;98.20
42365;DHT22;28498;54.400;18.566;2023-05-07T12:34:13;12.40;99.90
42365;DHT22;28498;54.400;18.566;2023-05-07T12:36:40;12.40;99.90
42365;DHT22;28498;54.400;18.566;2023-05-07T12:39:08;12.10;99.90
42365;DHT22;28498;54.400;18.566;2023-05-07T12:41:57;12.10;99.90
42365;DHT22;28498;54.400;18.566;2023-05-07T12:44:32;12.00;99.90
42365;DHT22;28498;54.400;18.566;2023-05-07T12:47:02;11.90;99.50
42365;DHT22;28498;54.400;18.566;2023-05-07T12:49:30;11.70;99.90
42365;DHT22;28498;54.400;18.566;2023-05-07T12:51:57;12.00;99.90
42365;DHT22;28498;54.400;18.566;2023-05-07T12:54:33;12.00;98.80
42365;DHT22;28498;54.400;18.566;2023-05-07T12:57:05;12.20;98.40
42365;DHT22;28498;54.400;18.566;2023-05-07T12:59:41;12.10;99.80
42365;DHT22;28498;54.400;18.566;2023-05-07T13:02:09;11.90;99.50
42365;DHT22;28498;54.400;18.566;2023-05-07T13:04:36;11.80;99.90
42365;DHT22;28498;54.400;18.566;2023-05-07T13:07:03;12.00;99.40
42365;DHT22;28498;54.400;18.566;2023-05-07T13:09:31;12.10;99.50
42365;DHT22;28498;54.400;18.566;2023-05-07T13:11:58;12.20;98.80
42365;DHT22;28498;54.400;18.566;2023-05-07T13:14:28;12.00;96.10
42365;DHT22;28498;54.400;18.566;2023-05-07T13:16:55;11.90;97.10
42365;DHT22;28498;54.400;18.566;2023-05-07T13:19:22;12.20;97.70
42365;DHT22;28498;54.400;18.566;2023-05-07T13:21:49;12.40;95.80
42365;DHT22;28498;54.400;18.566;2023-05-07T13:24:16;12.50;95.80
42365;DHT22;28498;54.400;18.566;2023-05-07T13:26:43;12.50;92.90
42365;DHT22;28498;54.400;18.566;2023-05-07T13:29:11;12.40;92.60
42365;DHT22;28498;54.400;18.566;2023-05-07T13:31:38;12.40;94.30
42365;DHT22;28498;54.400;18.566;2023-05-07T13:34:10;12.30;92.40
42365;DHT22;28498;54.400;18.566;2023-05-07T13:36:37;12.20;92.40
42365;DHT22;28498;54.400;18.566;2023-05-07T13:39:06;12.20;93.90
42365;DHT22;28498;54.400;18.566;2023-05-07T13:41:33;12.20;93.90
42365;DHT22;28498;54.400;18.566;2023-05-07T13:44:00;12.00;92.20
42365;DHT22;28498;54.400;18.566;2023-05-07T13:46:27;12.20;93.80
42365;DHT22;28498;54.400;18.566;2023-05-07T13:48:56;12.30;92.70
42365;DHT22;28498;54.400;18.566;2023-05-07T13:51:23;12.40;93.10
42365;DHT22;28498;54.400;18.566;2023-05-07T13:53:50;12.60;90.10
42365;DHT22;28498;54.400;18.566;2023-05-07T13:56:17;13.00;89.60
42365;DHT22;28498;54.400;18.566;2023-05-07T13:58:44;13.50;84.30
42365;DHT22;28498;54.400;18.566;2023-05-07T14:01:25;14.10;82.90
42365;DHT22;28498;54.400;18.566;2023-05-07T14:03:52;14.50;78.10
42365;DHT22;28498;54.400;18.566;2023-05-07T14:06:19;14.80;76.20
42365;DHT22;28498;54.400;18.566;2023-05-07T14:08:46;14.70;70.70
42365;DHT22;28498;54.400;18.566;2023-05-07T14:11:13;14.90;71.20
42365;DHT22;28498;54.400;18.566;2023-05-07T14:13:40;15.20;67.10
42365;DHT22;28498;54.400;18.566;2023-05-07T14:16:07;15.10;64.60
42365;DHT22;28498;54.400;18.566;2023-05-07T14:18:34;15.70;67.70
42365;DHT22;28498;54.400;18.566;2023-05-07T14:21:04;15.90;65.70
42365;DHT22;28498;54.400;18.566;2023-05-07T14:23:33;16.30;62.10
42365;DHT22;28498;54.400;18.566;2023-05-07T14:25:59;16.30;61.40
42365;DHT22;28498;54.400;18.566;2023-05-07T14:28:26;16.10;61.70
42365;DHT22;28498;54.400;18.566;2023-05-07T14:30:54;15.80;60.50
42365;DHT22;28498;54.400;18.566;2023-05-07T14:33:21;15.60;61.60
42365;DHT22;28498;54.400;18.566;2023-05-07T14:35:48;15.60;60.70
42365;DHT22;28498;54.400;18.566;2023-05-07T14:38:16;15.20;58.80
42365;DHT22;28498;54.400;18.566;2023-05-07T14:40:44;15.20;59.60
42365;DHT22;28498;54.400;18.566;2023-05-07T14:43:11;15.10;60.10
42365;DHT22;28498;54.400;18.566;2023-05-07T14:45:38;14.70;59.20
42365;DHT22;28498;54.400;18.566;2023-05-07T14:48:06;14.60;61.70
42365;DHT22;28498;54.400;18.566;2023-05-07T14:50:33;14.90;61.80
42365;DHT22;28498;54.400;18.566;2023-05-07T14:53:00;15.10;61.70
42365;DHT22;28498;54.400;18.566;2023-05-07T14:55:27;15.10;60.90
42365;DHT22;28498;54.400;18.566;2023-05-07T14:57:55;15.50;60.50
42365;DHT22;28498;54.400;18.566;2023-05-07T15:00:22;15.50;59.90
42365;DHT22;28498;54.400;18.566;2023-05-07T15:02:49;15.60;60.60
42365;DHT22;28498;54.400;18.566;2023-05-07T15:05:16;15.60;60.20
42365;DHT22;28498;54.400;18.566;2023-05-07T15:07:45;15.30;59.70
42365;DHT22;28498;54.400;18.566;2023-05-07T15:10:13;14.80;61.90
42365;DHT22;28498;54.400;18.566;2023-05-07T15:12:39;14.80;62.00
42365;DHT22;28498;54.400;18.566;2023-05-07T15:15:07;14.90;60.50
42365;DHT22;28498;54.400;18.566;2023-05-07T15:17:35;15.00;61.40
42365;DHT22;28498;54.400;18.566;2023-05-07T15:20:02;15.30;61.80
42365;DHT22;28498;54.400;18.566;2023-05-07T15:22:31;15.10;62.10
42365;DHT22;28498;54.400;18.566;2023-05-07T15:24:59;15.30;62.40
42365;DHT22;28498;54.400;18.566;2023-05-07T15:27:26;15.00;63.30
42365;DHT22;28498;54.400;18.566;2023-05-07T15:29:53;15.20;62.30
42365;DHT22;28498;54.400;18.566;2023-05-07T15:32:20;14.70;64.40
42365;DHT22;28498;54.400;18.566;2023-05-07T15:34:47;15.10;63.80
42365;DHT22;28498;54.400;18.566;2023-05-07T15:37:14;15.40;62.40
42365;DHT22;28498;54.400;18.566;2023-05-07T15:39:41;15.40;62.30
42365;DHT22;28498;54.400;18.566;2023-05-07T15:42:08;15.40;63.10
42365;DHT22;28498;54.400;18.566;2023-05-07T15:44:35;15.60;62.20
42365;DHT22;28498;54.400;18.566;2023-05-07T15:47:02;15.70;61.50
42365;DHT22;28498;54.400;18.566;2023-05-07T15:49:29;15.70;58.00
42365;DHT22;28498;54.400;18.566;2023-05-07T15:51:56;15.70;59.40
42365;DHT22;28498;54.400;18.566;2023-05-07T15:54:23;15.80;58.80
42365;DHT22;28498;54.400;18.566;2023-05-07T15:56:51;15.70;59.40